Overview Statistics Trail Chart Weather Telemetry Raw packets
 

This is the latest recevied weather packets stored in our database for station/object MeshWX-1. If no packets are shown the sender has not sent any weather packets the latest 10 day(s).

<< 26 27 28 29 30 31 32 >>
Time Temp. Humidity Pressure Rain* Wind** Luminosity Snow
1787999869 33.89° C 23% 1000.5 hPa - - - -
1787999221 33.89° C 23% 1000.5 hPa - - - -
1787997769 32.78° C 25% 1001 hPa - - - -
1787997151 32.78° C 25% 1001 hPa - - - -
1787997123 32.22° C 26% 1001.2 hPa - - - -
1787995669 32.22° C 26% 1001.2 hPa - - - -
1787995117 32.22° C 26% 1001.2 hPa - - - -
1787993690 31.67° C 27% 1001.6 hPa - - - -
1787993630 31.67° C 27% 1001.6 hPa - - - -
1787993118 31.67° C 27% 1001.6 hPa - - - -
1787993051 31.11° C 30% 1001.2 hPa - - - -
1787991710 31.11° C 30% 1001.2 hPa - - - -
1787991649 31.11° C 30% 1001.2 hPa - - - -
1787991156 31.11° C 30% 1001.2 hPa - - - -
1787989670 30.56° C 33% 1001.5 hPa - - - -
1787989609 30.56° C 33% 1001.5 hPa - - - -
1787989140 30.56° C 33% 1001.5 hPa - - - -
1787989124 27.78° C 40% 1001.8 hPa - - - -
1787987629 27.78° C 40% 1001.8 hPa - - - -
1787987568 27.78° C 40% 1001.8 hPa - - - -
1787987106 27.78° C 40% 1001.8 hPa - - - -
1787985529 25° C 44% 1002.1 hPa - - - -
1787985468 25° C 44% 1002.1 hPa - - - -
1787985053 25° C 44% 1002.1 hPa - - - -
1787985000 25° C 44% 1002.1 hPa - - - -

* Rain since midnight (hover to see other rain measurements)
** Current wind speed in m/s (hover to see current wind gust speed)